Time;durP1;ratioP1;P1;durP2;ratioP2;P2;SDS_P1;SDS_P2;PMS_P1;PMS_P2;Temp;Humidity;BMP_temperature;BMP_pressure;BME280_temperature;BME280_humidity;BME280_pressure;Samples;Min_cycle;Max_cycle;Signal;HPM_P1;HPM_P2
2021/01/29 00:00:38;;;;;;;126.43;10.32;;;10.20;99.90;;;;;;4890237;29;20029;-89
2021/01/29 00:03:07;;;;;;;118.55;11.80;;;10.10;99.90;;;;;;4879953;29;20407;-88
2021/01/29 00:05:37;;;;;;;100.10;11.23;;;10.10;99.90;;;;;;4882451;29;20112;-89
2021/01/29 00:08:03;;;;;;;110.18;9.65;;;10.10;99.50;;;;;;4882357;29;20037;-90
2021/01/29 00:10:29;;;;;;;102.55;10.45;;;10.10;99.70;;;;;;4904949;29;20036;-89
2021/01/29 00:12:56;;;;;;;108.32;13.38;;;10.10;99.60;;;;;;4906684;29;20063;-89
2021/01/29 00:15:22;;;;;;;99.28;11.18;;;10.10;99.50;;;;;;4880648;29;20027;-89
2021/01/29 00:17:48;;;;;;;111.28;10.90;;;10.10;99.60;;;;;;4876093;29;20391;-90
2021/01/29 00:20:19;;;;;;;91.30;11.05;;;10.10;99.50;;;;;;4868948;29;20032;-90
2021/01/29 00:22:46;;;;;;;81.32;10.00;;;10.00;99.60;;;;;;4880007;29;20061;-91
2021/01/29 00:25:17;;;;;;;104.93;11.90;;;10.10;99.50;;;;;;4881630;29;20045;-90
2021/01/29 00:27:43;;;;;;;92.18;9.40;;;10.00;99.20;;;;;;4869848;29;20034;-89
2021/01/29 00:30:11;;;;;;;83.20;11.07;;;10.00;99.30;;;;;;4880522;29;20024;-90
2021/01/29 00:32:36;;;;;;;98.65;11.32;;;10.00;99.30;;;;;;4883981;29;20024;-90
2021/01/29 00:35:03;;;;;;;95.47;9.13;;;9.90;99.20;;;;;;4882350;29;20040;-90
2021/01/29 00:37:29;;;;;;;94.55;13.90;;;9.90;99.40;;;;;;4882115;29;20174;-91
2021/01/29 00:39:55;;;;;;;98.45;10.57;;;9.90;98.90;;;;;;4881459;29;20056;-91
2021/01/29 00:42:20;;;;;;;;;;;9.90;99.20;;;;;;4881148;29;20041;-91
2021/01/29 00:44:46;;;;;;;98.97;11.02;;;9.90;99.30;;;;;;4888854;29;19908;-90
2021/01/29 00:47:12;;;;;;;107.03;9.98;;;9.80;99.50;;;;;;4878517;29;20033;-90
2021/01/29 00:49:37;;;;;;;99.10;9.80;;;9.80;99.40;;;;;;4882509;29;20092;-90
2021/01/29 00:52:03;;;;;;;100.15;8.77;;;9.80;99.60;;;;;;4882800;29;20068;-90
2021/01/29 00:54:29;;;;;;;;;;;9.80;99.60;;;;;;4880548;29;20044;-90
2021/01/29 00:56:54;;;;;;;87.40;12.57;;;9.80;99.40;;;;;;4876764;29;19923;-91
2021/01/29 00:59:20;;;;;;;84.90;9.15;;;9.80;99.40;;;;;;4871988;29;20039;-91
2021/01/29 01:01:46;;;;;;;98.53;10.00;;;9.80;99.40;;;;;;4870016;29;20436;-90
2021/01/29 01:04:12;;;;;;;94.03;10.80;;;9.70;99.30;;;;;;4880223;29;20029;-90
2021/01/29 01:06:39;;;;;;;86.53;10.88;;;9.70;99.10;;;;;;4877349;29;20066;-91
2021/01/29 01:09:05;;;;;;;90.28;9.27;;;9.60;99.30;;;;;;4876331;29;20040;-92
2021/01/29 01:11:31;;;;;;;94.82;10.85;;;9.50;99.30;;;;;;4882154;29;20021;-91
2021/01/29 01:13:56;;;;;;;89.82;9.98;;;9.50;99.50;;;;;;4886792;29;20044;-92
2021/01/29 01:16:22;;;;;;;99.30;10.63;;;9.50;99.60;;;;;;4878449;29;20025;-91
2021/01/29 01:18:48;;;;;;;95.03;10.27;;;9.50;99.60;;;;;;4881903;29;20091;-91
2021/01/29 01:21:13;;;;;;;73.97;8.32;;;9.50;99.50;;;;;;4880482;29;20026;-91
2021/01/29 01:23:39;;;;;;;101.13;10.23;;;9.50;99.60;;;;;;4879645;29;20053;-91
2021/01/29 01:26:05;;;;;;;85.93;10.30;;;9.50;99.50;;;;;;4885766;29;20025;-91
2021/01/29 07:56:31;;;;;;;12.02;2.63;;;8.20;99.80;;;;;;5138297;23;20060;-82
2021/01/29 10:29:20;;;;;;;3.28;1.27;;;10.10;93.40;;;;;;5345353;23;20625;-94
2021/01/29 10:32:17;;;;;;;10.10;1.67;;;10.10;94.10;;;;;;4892778;29;20447;-92
2021/01/29 10:34:54;;;;;;;9.05;2.33;;;10.00;94.70;;;;;;4883839;29;20025;-92
2021/01/29 10:37:31;;;;;;;8.18;1.90;;;10.10;94.70;;;;;;4895492;29;20044;-92
2021/01/29 10:40:11;;;;;;;8.65;2.08;;;10.10;95.50;;;;;;4875804;29;20526;-92
2021/01/29 10:42:51;;;;;;;7.20;2.28;;;10.30;95.10;;;;;;4875795;29;20030;-93
2021/01/29 10:45:47;;;;;;;7.28;1.15;;;10.50;93.80;;;;;;4905102;29;20553;-92
2021/01/29 10:48:41;;;;;;;8.07;1.50;;;10.40;93.60;;;;;;4904709;29;20085;-92
2021/01/29 10:51:18;;;;;;;8.95;1.50;;;10.40;94.20;;;;;;4876444;29;20025;-93
2021/01/29 10:53:45;;;;;;;5.63;1.25;;;10.30;93.90;;;;;;4885457;29;20040;-92
2021/01/29 10:56:18;;;;;;;7.32;1.75;;;10.30;95.30;;;;;;4879980;29;20021;-92
2021/01/29 10:59:10;;;;;;;9.98;2.28;;;10.50;95.00;;;;;;4879663;29;20115;-92
2021/01/29 11:01:39;;;;;;;10.95;2.67;;;10.60;94.40;;;;;;4897969;29;20012;-90
2021/01/29 11:04:20;;;;;;;10.95;2.50;;;10.60;94.70;;;;;;4894818;29;20020;-92
2021/01/29 11:06:52;;;;;;;9.75;2.05;;;10.60;94.90;;;;;;4889798;29;20368;-92
2021/01/29 11:09:27;;;;;;;11.48;3.30;;;10.60;94.60;;;;;;4885750;29;20054;-93
2021/01/29 11:12:18;;;;;;;16.70;4.10;;;10.50;96.10;;;;;;4888116;29;20020;-92
2021/01/29 11:14:57;;;;;;;18.00;3.47;;;10.40;96.00;;;;;;4882554;29;20035;-91
2021/01/29 11:17:29;;;;;;;15.82;3.58;;;10.40;96.10;;;;;;4888047;29;20112;-92
2021/01/29 11:19:57;;;;;;;9.43;3.15;;;10.50;95.50;;;;;;4880604;29;20028;-91
2021/01/29 11:22:44;;;;;;;15.82;3.58;;;10.50;95.60;;;;;;4879203;29;20037;-91
2021/01/29 11:25:24;;;;;;;8.60;2.70;;;10.50;95.50;;;;;;4881655;29;20076;-92
2021/01/29 11:27:56;;;;;;;12.95;2.60;;;10.40;94.70;;;;;;4887617;29;20027;-92
2021/01/29 11:30:28;;;;;;;13.30;2.47;;;10.40;95.60;;;;;;4894909;29;20029;-92
2021/01/29 11:32:57;;;;;;;11.32;2.13;;;10.30;95.00;;;;;;4893735;29;20025;-92
2021/01/29 11:35:37;;;;;;;13.40;4.60;;;10.40;95.10;;;;;;4882947;29;20025;-91
2021/01/29 11:38:25;;;;;;;20.08;2.63;;;10.30;95.20;;;;;;4890536;29;20037;-92
2021/01/29 11:41:00;;;;;;;7.13;2.30;;;10.50;95.00;;;;;;4880313;29;20057;-92
2021/01/29 11:43:38;;;;;;;8.20;1.48;;;10.60;94.40;;;;;;4869790;29;20041;-92
2021/01/29 11:46:25;;;;;;;6.90;1.60;;;10.80;93.50;;;;;;4881346;29;20494;-91
2021/01/29 11:49:09;;;;;;;9.57;1.75;;;10.60;93.40;;;;;;4882212;29;20026;-91
2021/01/29 11:51:37;;;;;;;4.63;1.55;;;10.60;94.40;;;;;;4896715;29;20029;-91
2021/01/29 11:54:10;;;;;;;7.95;2.10;;;10.60;95.30;;;;;;4883505;29;20032;-93
2021/01/29 11:56:52;;;;;;;10.40;2.13;;;10.80;94.80;;;;;;4888436;29;20478;-91
2021/01/29 11:59:39;;;;;;;6.03;2.13;;;10.90;93.90;;;;;;4889870;29;20079;-91
2021/01/29 12:02:22;;;;;;;;;;;11.00;93.80;;;;;;4877137;29;20162;-92
2021/01/29 12:04:51;;;;;;;11.63;1.70;;;11.10;93.30;;;;;;4893292;29;19912;-90
2021/01/29 12:07:38;;;;;;;5.53;1.20;;;11.30;92.80;;;;;;4894526;29;20508;-91
2021/01/29 12:10:13;;;;;;;;;;;11.50;93.10;;;;;;4876457;29;20033;-91
2021/01/29 12:12:48;;;;;;;7.55;1.45;;;11.60;91.80;;;;;;4870917;29;19916;-91
2021/01/29 12:15:38;;;;;;;7.32;1.50;;;11.60;91.10;;;;;;4894301;29;20069;-89
2021/01/29 12:18:09;;;;;;;6.53;1.70;;;11.60;92.30;;;;;;4879760;29;20491;-90
2021/01/29 12:20:40;;;;;;;11.70;1.95;;;11.80;91.50;;;;;;4894784;29;20173;-91
2021/01/29 12:23:36;;;;;;;6.20;1.55;;;12.00;91.20;;;;;;4892189;29;20044;-90
2021/01/29 12:26:15;;;;;;;8.35;1.77;;;12.10;90.60;;;;;;4899593;29;20032;-87
2021/01/29 12:28:41;;;;;;;5.55;2.13;;;12.10;91.20;;;;;;4898431;29;20092;-87
2021/01/29 12:31:09;;;;;;;;;;;12.50;90.70;;;;;;4885566;29;20029;-88
2021/01/29 12:34:04;;;;;;;7.20;1.88;;;13.10;89.30;;;;;;4892973;29;20339;-89
2021/01/29 12:36:33;;;;;;;6.55;2.10;;;13.80;86.00;;;;;;4842028;29;20042;-86
2021/01/29 12:39:05;;;;;;;5.20;1.27;;;14.10;82.60;;;;;;4881748;29;20033;-90
2021/01/29 12:41:47;;;;;;;6.38;1.17;;;14.50;78.30;;;;;;4890361;29;20059;-89
2021/01/29 12:44:20;;;;;;;3.03;1.40;;;13.90;79.90;;;;;;4894197;29;20027;-91
2021/01/29 12:47:01;;;;;;;8.27;1.92;;;13.20;83.50;;;;;;4885550;29;20052;-91
2021/01/29 12:49:42;;;;;;;5.95;2.15;;;12.80;87.20;;;;;;4887252;29;20022;-90
2021/01/29 12:52:16;;;;;;;5.20;1.15;;;13.30;84.00;;;;;;4886460;29;20046;-89
2021/01/29 12:54:55;;;;;;;2.70;1.38;;;13.30;83.10;;;;;;4907214;29;20097;-89
2021/01/29 12:57:25;;;;;;;9.18;1.58;;;13.40;82.50;;;;;;4899706;29;20036;-92
2021/01/29 13:00:04;;;;;;;9.98;1.55;;;12.70;84.20;;;;;;4888841;29;20060;-92
2021/01/29 13:02:33;;;;;;;5.13;1.50;;;12.20;88.00;;;;;;4883663;29;20025;-91
2021/01/29 13:05:50;;;;;;;9.52;1.92;;;11.90;88.80;;;;;;4885415;29;20028;-91
2021/01/29 13:08:29;;;;;;;4.80;1.95;;;11.70;89.40;;;;;;4848133;29;20405;-92
2021/01/29 13:11:30;;;;;;;13.13;2.63;;;11.80;90.60;;;;;;4839454;29;20034;-90
2021/01/29 13:14:19;;;;;;;5.15;1.45;;;12.00;91.20;;;;;;4880028;29;20100;-90
2021/01/29 13:17:14;;;;;;;4.50;2.05;;;12.10;91.30;;;;;;4888576;29;20040;-90
2021/01/29 13:19:40;;;;;;;10.43;2.67;;;12.00;91.20;;;;;;4892598;29;20033;-90
2021/01/29 13:22:17;;;;;;;;;;;11.90;91.30;;;;;;4884409;29;20376;-92
2021/01/29 13:24:43;;;;;;;;;;;11.70;91.10;;;;;;4895543;29;20263;-90
2021/01/29 13:27:15;;;;;;;13.45;2.45;;;11.40;91.40;;;;;;4886569;29;19908;-92
2021/01/29 17:29:52;;;;;;;34.92;4.55;;;9.40;93.50;;;;;;5255550;23;20261;-94
2021/01/29 17:32:34;;;;;;;32.30;4.97;;;9.40;93.70;;;;;;4928676;29;20021;-94
2021/01/29 17:35:02;;;;;;;44.30;6.07;;;9.30;94.10;;;;;;4898291;29;20044;-93
2021/01/29 17:37:30;;;;;;;37.53;5.57;;;9.30;94.20;;;;;;4907683;29;20044;-94
2021/01/29 17:39:56;;;;;;;59.63;8.43;;;9.40;93.80;;;;;;4884653;29;20029;-94
2021/01/29 17:42:33;;;;;;;49.50;7.03;;;9.30;94.10;;;;;;4897775;29;20020;-92
2021/01/29 17:45:00;;;;;;;41.30;6.07;;;9.30;94.30;;;;;;4903056;29;20024;-94
2021/01/29 17:47:35;;;;;;;40.15;6.28;;;9.20;94.30;;;;;;4905436;29;20028;-93
2021/01/29 17:50:19;;;;;;;54.67;6.30;;;9.20;94.40;;;;;;4900679;29;20024;-93
2021/01/29 17:52:49;;;;;;;46.53;6.40;;;9.20;94.60;;;;;;4925714;29;20025;-94
2021/01/29 17:55:37;;;;;;;60.17;6.95;;;9.20;94.60;;;;;;4909386;29;20044;-95
2021/01/29 17:58:15;;;;;;;55.78;6.40;;;9.20;94.60;;;;;;4904858;29;20044;-95
2021/01/29 18:00:41;;;;;;;29.05;3.78;;;9.20;94.60;;;;;;4898995;29;20037;-96
2021/01/29 18:03:08;;;;;;;33.25;5.57;;;9.20;94.30;;;;;;4892351;29;20398;-95
2021/01/29 18:05:53;;;;;;;38.22;6.68;;;9.20;94.30;;;;;;4894608;29;20044;-95
2021/01/29 18:08:32;;;;;;;24.52;5.93;;;9.20;93.90;;;;;;4903334;29;20036;-95
2021/01/29 18:10:58;;;;;;;45.22;5.30;;;9.20;94.30;;;;;;4898391;29;20033;-96
2021/01/29 18:13:25;;;;;;;33.20;5.55;;;9.20;93.80;;;;;;4898300;29;20591;-95
2021/01/29 18:16:08;;;;;;;44.03;5.70;;;9.30;94.10;;;;;;4900759;29;20032;-94
2021/01/29 18:18:43;;;;;;;36.38;5.70;;;9.30;93.90;;;;;;4890176;29;20039;-96
2021/01/29 18:21:17;;;;;;;53.75;6.32;;;9.20;93.80;;;;;;4898746;29;20032;-95
2021/01/29 18:23:46;;;;;;;34.22;7.28;;;9.20;94.00;;;;;;4889572;29;20040;-94
2021/01/29 18:26:14;;;;;;;41.10;5.43;;;9.20;94.10;;;;;;4892166;29;20075;-94
2021/01/29 18:28:40;;;;;;;39.78;4.57;;;9.20;94.10;;;;;;4909473;29;20115;-94
2021/01/29 18:31:07;;;;;;;;;;;9.20;94.00;;;;;;4919401;29;20016;-87
2021/01/29 18:33:46;;;;;;;37.20;5.25;;;9.20;94.20;;;;;;4907339;29;19918;-94
2021/01/29 18:36:16;;;;;;;35.95;5.13;;;9.20;94.00;;;;;;4914557;29;20029;-93
2021/01/29 18:38:43;;;;;;;52.85;5.85;;;9.20;93.90;;;;;;4910780;29;20075;-93
2021/01/29 18:41:14;;;;;;;27.92;5.78;;;9.20;94.00;;;;;;4913732;29;20059;-93
2021/01/29 18:43:42;;;;;;;49.85;5.50;;;9.20;94.20;;;;;;4889943;29;20043;-93
2021/01/29 18:46:07;;;;;;;49.08;5.60;;;9.20;94.40;;;;;;4890953;29;20063;-93
2021/01/29 18:48:34;;;;;;;46.03;5.43;;;9.10;94.50;;;;;;4903373;29;20103;-93
2021/01/29 18:51:01;;;;;;;47.42;5.97;;;9.10;94.60;;;;;;4890632;29;20044;-91
2021/01/29 18:53:26;;;;;;;37.88;6.00;;;9.10;94.80;;;;;;4884195;29;20029;-92
2021/01/29 18:55:54;;;;;;;47.90;5.80;;;9.10;94.80;;;;;;4901279;29;20095;-95
2021/01/29 18:58:20;;;;;;;37.03;4.78;;;9.10;94.90;;;;;;4896617;29;20032;-93
2021/01/29 19:00:46;;;;;;;40.55;5.72;;;9.20;95.10;;;;;;4898666;29;20390;-90
2021/01/29 19:03:12;;;;;;;52.22;7.00;;;9.10;95.30;;;;;;4894009;29;20173;-92
2021/01/29 19:05:37;;;;;;;46.08;5.43;;;9.10;95.50;;;;;;4889596;29;20029;-91
2021/01/29 19:08:03;;;;;;;42.53;5.03;;;9.20;95.50;;;;;;4888672;29;20442;-92
2021/01/29 19:10:29;;;;;;;;;;;9.20;95.40;;;;;;4890411;29;20020;-91
2021/01/29 19:12:57;;;;;;;32.03;5.32;;;9.20;95.40;;;;;;4897617;29;19922;-94
2021/01/29 19:15:24;;;;;;;39.85;6.13;;;9.20;95.60;;;;;;4903307;29;20015;-96
2021/01/29 19:17:50;;;;;;;58.17;8.30;;;9.20;95.80;;;;;;4895730;29;20037;-96
2021/01/29 19:20:19;;;;;;;49.30;7.63;;;9.10;95.90;;;;;;4897388;29;20043;-96
2021/01/29 19:22:45;;;;;;;46.78;7.07;;;9.10;96.00;;;;;;4896595;29;20107;-96
2021/01/29 19:25:11;;;;;;;;;;;9.10;95.90;;;;;;4890149;29;20382;-94
2021/01/29 19:27:37;;;;;;;46.47;5.40;;;9.10;95.90;;;;;;4892797;29;19911;-94
2021/01/29 19:30:08;;;;;;;55.53;6.85;;;9.20;95.70;;;;;;4886908;29;20060;-93
2021/01/29 19:32:34;;;;;;;50.78;5.43;;;9.20;95.90;;;;;;4891750;29;20067;-88
2021/01/29 19:35:00;;;;;;;;;;;9.20;95.80;;;;;;4897755;29;20164;-88
2021/01/29 19:37:26;;;;;;;34.67;4.30;;;9.20;95.60;;;;;;4890722;29;19954;-89
2021/01/29 19:39:53;;;;;;;45.38;5.55;;;9.30;95.40;;;;;;4890377;29;20062;-87
2021/01/29 19:42:19;;;;;;;51.78;7.05;;;9.20;95.40;;;;;;4881532;29;20076;-91
2021/01/29 19:44:46;;;;;;;43.30;5.38;;;9.20;95.50;;;;;;4885105;29;20033;-92
2021/01/29 19:47:14;;;;;;;48.83;7.32;;;9.20;95.60;;;;;;4889489;29;20050;-88
2021/01/29 19:49:40;;;;;;;53.60;6.45;;;9.20;95.70;;;;;;4892910;29;20108;-89
2021/01/29 19:52:06;;;;;;;37.83;6.80;;;9.10;95.80;;;;;;4898552;29;20053;-90
2021/01/29 19:54:32;;;;;;;55.30;6.50;;;9.10;95.90;;;;;;4910902;29;20021;-92
2021/01/29 19:57:09;;;;;;;50.63;6.13;;;9.10;95.90;;;;;;4914146;29;20053;-92
2021/01/29 19:59:35;;;;;;;48.60;6.35;;;9.00;96.10;;;;;;4919014;29;20036;-89
2021/01/29 20:02:01;;;;;;;55.50;6.72;;;9.00;96.30;;;;;;4909366;29;20024;-88
2021/01/29 20:04:27;;;;;;;62.75;7.97;;;9.00;96.40;;;;;;4919036;29;20016;-90
2021/01/29 20:06:53;;;;;;;49.88;6.28;;;8.90;96.60;;;;;;4918461;29;20021;-90
2021/01/29 20:09:19;;;;;;;52.00;7.00;;;8.80;96.80;;;;;;4936679;28;20021;-92
2021/01/29 20:11:45;;;;;;;59.75;7.80;;;8.90;96.90;;;;;;4920953;29;20296;-94
2021/01/29 20:14:11;;;;;;;;;;;8.80;97.10;;;;;;4923209;29;20020;-92
2021/01/29 20:16:37;;;;;;;48.70;7.65;;;8.80;97.00;;;;;;4918175;29;19967;-91
2021/01/29 20:19:04;;;;;;;62.78;8.45;;;8.80;97.10;;;;;;4914095;29;20105;-88
2021/01/29 20:21:30;;;;;;;60.33;8.70;;;8.90;97.20;;;;;;4915546;29;20017;-90
2021/01/29 20:23:55;;;;;;;69.55;7.93;;;8.80;97.20;;;;;;4918621;29;20033;-90
2021/01/29 20:26:22;;;;;;;59.58;9.27;;;8.80;97.40;;;;;;4923632;29;20032;-89
2021/01/29 20:28:48;;;;;;;66.07;8.00;;;8.70;97.50;;;;;;4925729;29;20025;-90
2021/01/29 20:31:17;;;;;;;;;;;8.70;97.60;;;;;;4940595;28;20060;-89
2021/01/29 20:33:44;;;;;;;73.20;11.82;;;8.70;97.50;;;;;;4905450;29;20397;-93
2021/01/29 20:36:10;;;;;;;67.43;9.25;;;8.70;97.50;;;;;;4900761;29;20443;-88
2021/01/29 20:38:38;;;;;;;65.85;9.63;;;8.80;97.50;;;;;;4898213;29;20033;-90
2021/01/29 20:41:04;;;;;;;56.05;8.23;;;8.70;97.60;;;;;;4908729;29;20059;-92
2021/01/29 20:43:32;;;;;;;68.80;9.75;;;8.70;97.80;;;;;;4901253;29;20029;-90
2021/01/29 20:45:59;;;;;;;80.20;8.77;;;8.60;97.90;;;;;;4901632;29;20035;-90
2021/01/29 20:48:25;;;;;;;62.63;10.77;;;8.60;98.10;;;;;;4923747;29;20028;-96
2021/01/29 20:50:51;;;;;;;;;;;8.60;98.00;;;;;;4904145;29;20056;-95
2021/01/29 20:53:17;;;;;;;66.13;7.80;;;8.60;98.10;;;;;;4902375;29;19907;-95
2021/01/29 20:56:16;;;;;;;59.05;7.25;;;8.60;98.20;;;;;;4923601;29;20489;-95
2021/01/29 20:58:42;;;;;;;62.28;6.93;;;8.60;98.20;;;;;;4904273;29;20049;-92
2021/01/29 21:01:08;;;;;;;54.85;8.55;;;8.50;98.20;;;;;;4907590;29;20487;-95
2021/01/29 21:06:11;;;;;;;54.70;7.90;;;8.50;98.30;;;;;;4989369;23;20052;-94
2021/01/29 21:08:37;;;;;;;47.05;6.97;;;8.40;98.40;;;;;;4902264;29;20390;-93
2021/01/29 21:11:04;;;;;;;55.05;9.25;;;8.50;98.40;;;;;;4895498;29;20036;-93
2021/01/29 21:13:29;;;;;;;59.83;9.52;;;8.50;98.50;;;;;;4887752;29;20093;-94
2021/01/29 21:15:55;;;;;;;71.80;8.90;;;8.50;98.50;;;;;;4904185;29;20053;-91
2021/01/29 21:18:26;;;;;;;76.10;9.75;;;8.60;98.30;;;;;;4873621;29;20048;-91
2021/01/29 21:20:53;;;;;;;75.38;9.32;;;8.50;98.40;;;;;;4885373;29;20028;-96
2021/01/29 21:23:20;;;;;;;50.85;9.00;;;8.50;98.30;;;;;;4900732;29;20190;-95
2021/01/29 21:25:46;;;;;;;78.85;9.10;;;8.50;98.30;;;;;;4887631;29;20029;-87
2021/01/29 21:28:15;;;;;;;57.92;9.35;;;8.40;98.30;;;;;;4914600;29;20043;-89
2021/01/29 21:30:40;;;;;;;57.95;8.65;;;8.30;98.40;;;;;;4891395;29;20033;-92
2021/01/29 21:33:09;;;;;;;64.78;9.68;;;8.30;98.70;;;;;;4884709;29;20495;-91
2021/01/29 21:35:39;;;;;;;49.60;7.80;;;8.30;98.80;;;;;;4874993;29;20045;-88
2021/01/29 21:38:08;;;;;;;48.40;6.63;;;8.30;98.90;;;;;;4874503;29;20041;-89
2021/01/29 21:40:34;;;;;;;54.22;7.78;;;8.30;99.10;;;;;;4877896;29;20029;-89
2021/01/29 21:43:00;;;;;;;59.47;8.02;;;8.40;98.70;;;;;;4882128;29;20033;-89
2021/01/29 21:45:33;;;;;;;64.97;9.23;;;8.30;98.60;;;;;;4874548;29;20491;-88
2021/01/29 21:48:01;;;;;;;48.13;6.90;;;8.20;98.80;;;;;;4868724;29;20025;-88
2021/01/29 21:50:27;;;;;;;63.72;7.30;;;8.20;98.90;;;;;;4899104;29;20032;-88
2021/01/29 21:52:53;;;;;;;61.15;7.85;;;8.10;98.90;;;;;;4884428;29;20033;-88
2021/01/29 21:55:19;;;;;;;48.00;7.38;;;8.10;99.10;;;;;;4887207;29;20136;-89
2021/01/29 21:57:45;;;;;;;55.97;10.30;;;8.10;99.20;;;;;;4876528;29;20029;-86
2021/01/29 22:00:14;;;;;;;76.32;9.25;;;8.10;99.30;;;;;;4876371;29;20044;-86
2021/01/29 22:02:40;;;;;;;48.33;8.98;;;8.10;99.30;;;;;;4875787;29;20033;-87
2021/01/29 22:05:08;;;;;;;65.80;8.20;;;8.10;99.30;;;;;;4887779;29;20479;-87
2021/01/29 22:07:35;;;;;;;52.05;8.95;;;8.10;99.20;;;;;;4880810;29;20487;-88
2021/01/29 22:10:02;;;;;;;56.42;9.20;;;8.10;99.20;;;;;;4877749;29;20025;-87
2021/01/29 22:12:28;;;;;;;46.25;8.75;;;8.10;99.20;;;;;;4878865;29;20029;-87
2021/01/29 22:14:54;;;;;;;43.22;8.57;;;8.10;99.20;;;;;;4881213;29;20032;-90
2021/01/29 22:17:20;;;;;;;50.35;8.13;;;8.20;98.60;;;;;;4880410;29;20051;-89
2021/01/29 22:19:45;;;;;;;36.13;7.80;;;8.20;98.30;;;;;;4893634;29;20013;-90
2021/01/29 22:22:11;;;;;;;41.90;6.22;;;8.30;97.80;;;;;;4887209;29;20040;-88
2021/01/29 22:24:42;;;;;;;50.08;6.47;;;8.30;97.80;;;;;;4898529;29;20085;-89
2021/01/29 22:27:10;;;;;;;38.97;6.63;;;8.30;97.90;;;;;;4900325;29;20017;-88
2021/01/29 22:29:36;;;;;;;38.75;7.38;;;8.20;97.90;;;;;;4893361;29;20029;-90
2021/01/29 22:32:03;;;;;;;;;;;8.10;98.40;;;;;;4883195;29;20032;-90
2021/01/29 22:34:28;;;;;;;46.25;7.25;;;8.10;98.40;;;;;;4887297;29;19911;-89
2021/01/29 22:36:54;;;;;;;39.28;8.70;;;8.10;98.10;;;;;;4888060;29;20036;-87
2021/01/29 22:39:20;;;;;;;29.00;6.68;;;8.10;97.90;;;;;;4886732;29;20044;-88
2021/01/29 22:41:46;;;;;;;36.47;5.63;;;8.10;97.80;;;;;;4881775;29;20057;-87
2021/01/29 22:44:11;;;;;;;43.25;5.78;;;8.10;98.30;;;;;;4889421;29;20033;-87
2021/01/29 22:46:37;;;;;;;32.13;6.00;;;8.00;98.40;;;;;;4876539;29;20025;-88
2021/01/29 22:49:03;;;;;;;31.83;6.47;;;8.00;98.30;;;;;;4889056;29;20265;-86
2021/01/29 22:51:29;;;;;;;;;;;8.00;98.40;;;;;;4883992;29;20037;-87
2021/01/29 22:53:54;;;;;;;33.05;5.90;;;7.90;97.80;;;;;;4887527;29;19972;-87
2021/01/29 22:56:20;;;;;;;39.40;6.53;;;7.90;97.80;;;;;;4884147;29;20025;-87
2021/01/29 22:58:46;;;;;;;33.33;5.40;;;7.90;97.90;;;;;;4884272;29;20081;-88
2021/01/29 23:01:12;;;;;;;31.35;6.95;;;7.90;97.90;;;;;;4889983;29;20051;-88
2021/01/29 23:03:38;;;;;;;;;;;7.90;98.00;;;;;;4888739;29;20402;-88
2021/01/29 23:06:04;;;;;;;28.63;5.25;;;7.90;98.00;;;;;;4904739;29;19923;-85
2021/01/29 23:08:30;;;;;;;38.70;5.88;;;7.90;98.00;;;;;;4889940;29;20048;-85
2021/01/29 23:10:56;;;;;;;40.53;5.85;;;7.90;98.10;;;;;;4877208;29;20085;-86
2021/01/29 23:13:22;;;;;;;41.63;5.72;;;7.90;98.10;;;;;;4874885;29;20043;-87
2021/01/29 23:15:49;;;;;;;50.42;6.53;;;7.90;98.00;;;;;;4877006;29;20065;-86
2021/01/29 23:18:17;;;;;;;41.55;6.97;;;7.90;97.90;;;;;;4890912;29;20124;-86
2021/01/29 23:20:47;;;;;;;26.45;5.30;;;7.90;97.80;;;;;;4873659;29;20112;-87
2021/01/29 23:23:15;;;;;;;29.58;5.20;;;7.90;97.60;;;;;;4875396;29;20025;-84
2021/01/29 23:25:42;;;;;;;38.38;5.78;;;7.90;97.40;;;;;;4869621;29;20029;-86
2021/01/29 23:28:13;;;;;;;32.83;5.78;;;7.80;97.30;;;;;;4877047;29;20037;-85
2021/01/29 23:30:39;;;;;;;36.28;6.10;;;7.80;97.70;;;;;;4874406;29;20032;-86
2021/01/29 23:33:06;;;;;;;30.67;5.97;;;7.80;97.80;;;;;;4868757;29;20502;-87
2021/01/29 23:35:34;;;;;;;25.40;5.57;;;7.80;97.50;;;;;;4872948;29;20029;-86
2021/01/29 23:38:01;;;;;;;39.22;5.18;;;7.80;97.50;;;;;;4876027;29;20037;-84
2021/01/29 23:40:27;;;;;;;31.55;5.72;;;7.80;97.60;;;;;;4867565;29;20072;-91
2021/01/29 23:42:53;;;;;;;31.77;5.43;;;7.80;97.60;;;;;;4889450;29;20038;-90
2021/01/29 23:45:20;;;;;;;30.73;5.45;;;7.80;97.60;;;;;;4864795;29;20503;-91
2021/01/29 23:47:46;;;;;;;35.65;6.72;;;7.80;97.30;;;;;;4870810;29;20033;-89
2021/01/29 23:50:14;;;;;;;36.42;6.60;;;7.80;97.60;;;;;;4875570;29;20041;-91
2021/01/29 23:52:40;;;;;;;44.20;5.30;;;7.70;97.60;;;;;;4876292;29;20029;-90
2021/01/29 23:55:06;;;;;;;39.58;5.88;;;7.70;97.60;;;;;;4875939;29;20031;-90
2021/01/29 23:57:33;;;;;;;31.42;5.85;;;7.70;97.70;;;;;;4877299;29;20094;-90
2021/01/29 23:59:59;;;;;;;38.55;6.38;;;7.70;97.80;;;;;;4866885;29;20571;-90
